Sima — WDE9390 — position and weather

sailwx.info

Track history (hours):
 
Tides and Currents Weather Stations Pressure Air Temp Water Temp Dewpoint Dewpoint Depression Visibility Wind Speed Wind Dir Waves Ship Positions

Sima

Owner: M Cooper LLC, New York, NY. More information available from US FCC via Universal Licensing System and Coast Guard Vessel Documentation Center.

Last reported at 2018-Feb-21 11:00 UTC. Time now 2018-Feb-21 11:03 UTC.
Position N 40°45' W 074°01'.

Length 32 m.

Type: Pleasure craft. MMSI: 367416660.

Date/timePositionNaut miles runAvg speedWind from/ knotsBaromVisibWave heightAir tempDewpointWater temp
2018-Feb-21 11:00N 40°45' W 074°01'0 0.0
2018-Feb-21 10:30N 40°45' W 074°01'0 0.0
2018-Feb-21 10:00N 40°45' W 074°01'0 0.0
2018-Feb-21 09:30N 40°45' W 074°01'0 0.0
2018-Feb-21 08:57N 40°45' W 074°01'0 0.0
2018-Feb-21 08:30N 40°45' W 074°01'0 0.0
2018-Feb-21 08:00N 40°45' W 074°01'0 0.0
2018-Feb-21 07:30N 40°45' W 074°01'0 0.0
2018-Feb-21 07:00N 40°45' W 074°01'0 0.0
2018-Feb-21 06:30N 40°45' W 074°01'0 0.0
2018-Feb-21 06:00N 40°45' W 074°01'0 0.0
2018-Feb-21 05:30N 40°45' W 074°01'0 0.0
2018-Feb-21 05:00N 40°45' W 074°01'0 0.0
2018-Feb-21 04:30N 40°45' W 074°01'0 0.0
2018-Feb-21 04:00N 40°45' W 074°01'0 0.0
2018-Feb-21 03:30N 40°45' W 074°01'0 0.0
2018-Feb-21 03:00N 40°45' W 074°01'0 0.0
2018-Feb-21 02:30N 40°45' W 074°01'0 0.0
2018-Feb-21 02:00N 40°45' W 074°01'0 0.0
2018-Feb-21 01:30N 40°45' W 074°01'0 0.0
2018-Feb-21 01:00N 40°45' W 074°01'0 0.0
2018-Feb-21 00:30N 40°45' W 074°01'0 0.3
2018-Feb-21 00:00N 40°45' W 074°01'3 5.4
2018-Feb-20 23:30N 40°42' W 074°01'1 2.0
2018-Feb-20 23:00N 40°41' W 074°02'4 6.7
2018-Feb-20 22:29N 40°45' W 074°01'0 0.0
2018-Feb-20 21:59N 40°45' W 074°01'1 2.5
2018-Feb-20 21:30N 40°46' W 074°00'3 4.9
2018-Feb-20 20:59N 40°48' W 073°59'3 6.2
2018-Feb-20 20:29N 40°45' W 074°01'1 1.5
2018-Feb-20 20:00N 40°45' W 074°01'0 0.0
2018-Feb-20 19:30N 40°45' W 074°01'0 0.6
2018-Feb-20 18:58N 40°44' W 074°01'1 2.7
2018-Feb-20 18:30N 40°43' W 074°01'2 3.5
2018-Feb-20 18:00N 40°43' W 073°59'2 4.0
2018-Feb-20 17:30N 40°43' W 074°01'2 3.8
2018-Feb-20 17:00N 40°45' W 074°01'0 0.0
2018-Feb-20 16:30N 40°45' W 074°01'0 0.0
2018-Feb-20 16:00N 40°45' W 074°01'0 0.0
2018-Feb-20 15:30N 40°45' W 074°01'0 0.0
2018-Feb-20 15:00N 40°45' W 074°01'0 0.0
2018-Feb-20 14:30N 40°45' W 074°01'0 0.0
2018-Feb-20 14:00N 40°45' W 074°01'0 0.0
2018-Feb-20 13:30N 40°45' W 074°01'0 0.0
2018-Feb-20 13:00N 40°45' W 074°01'0 0.0
2018-Feb-20 12:30N 40°45' W 074°01'0 0.0
2018-Feb-20 12:00N 40°45' W 074°01'0 0.0
2018-Feb-20 11:30N 40°45' W 074°01'0 0.0
2018-Feb-20 11:00N 40°45' W 074°01'0 0.0
2018-Feb-20 10:29N 40°45' W 074°01'0 0.0
2018-Feb-20 09:59N 40°45' W 074°01'0 0.0
2018-Feb-20 09:29N 40°45' W 074°01'0 0.0
2018-Feb-20 08:59N 40°45' W 074°01'0 0.0
2018-Feb-20 08:29N 40°45' W 074°01'0 0.0
2018-Feb-20 07:59N 40°45' W 074°01'0 0.0
2018-Feb-20 07:29N 40°45' W 074°01'0 0.0
2018-Feb-20 06:59N 40°45' W 074°01'0 0.0
2018-Feb-20 06:29N 40°45' W 074°01'0 0.0
2018-Feb-20 05:59N 40°45' W 074°01'0 0.0
2018-Feb-20 05:29N 40°45' W 074°01'0 0.0
2018-Feb-20 04:59N 40°45' W 074°01'0 0.0
2018-Feb-20 04:29N 40°45' W 074°01'0 0.0
2018-Feb-20 03:59N 40°45' W 074°01'0 0.0
2018-Feb-20 03:29N 40°45' W 074°01'0 0.0
2018-Feb-20 02:59N 40°45' W 074°01'0 0.0
2018-Feb-20 02:29N 40°45' W 074°01'0 0.0
2018-Feb-20 01:59N 40°45' W 074°01'0 0.0
2018-Feb-20 01:30N 40°45' W 074°01'0 0.0
2018-Feb-20 01:00N 40°45' W 074°01'0 0.0
2018-Feb-20 00:30N 40°45' W 074°01'0 0.0
2018-Feb-20 00:00N 40°45' W 074°01'0 0.0
2018-Feb-19 23:30N 40°45' W 074°01'0 0.0
2018-Feb-19 23:00N 40°45' W 074°01'0 0.0
2018-Feb-19 22:30N 40°45' W 074°01'0 0.0
2018-Feb-19 21:57N 40°45' W 074°01'0 0.0
2018-Feb-19 21:24N 40°45' W 074°01'0 0.0
2018-Feb-19 21:00N 40°45' W 074°01'0 0.0
2018-Feb-19 20:27N 40°45' W 074°01'0 0.0
2018-Feb-19 20:00N 40°45' W 074°01'0 0.0
2018-Feb-19 19:30N 40°45' W 074°01'0 0.0
2018-Feb-19 19:00N 40°45' W 074°01'0 0.0
2018-Feb-19 18:30N 40°45' W 074°01'0 0.0
2018-Feb-19 18:00N 40°45' W 074°01'0 0.0
2018-Feb-19 17:30N 40°45' W 074°01'0 0.0
2018-Feb-19 17:00N 40°45' W 074°01'0 0.0
2018-Feb-19 16:30N 40°45' W 074°01'0 0.0
2018-Feb-19 16:00N 40°45' W 074°01'0 0.0
2018-Feb-19 15:30N 40°45' W 074°01'0 0.0
2018-Feb-19 15:00N 40°45' W 074°01'0 0.0
2018-Feb-19 14:30N 40°45' W 074°01'0 0.0
2018-Feb-19 14:00N 40°45' W 074°01'0 0.0
2018-Feb-19 13:30N 40°45' W 074°01'0 0.0
2018-Feb-19 13:00N 40°45' W 074°01'0 0.0
2018-Feb-19 12:30N 40°45' W 074°01'0 0.0
2018-Feb-19 12:00N 40°45' W 074°01'0 0.0
2018-Feb-19 11:30N 40°45' W 074°01'0 0.0
2018-Feb-19 11:00N 40°45' W 074°01'0 0.0
2018-Feb-19 10:30N 40°45' W 074°01'0 0.0
2018-Feb-19 10:00N 40°45' W 074°01'0 0.0
2018-Feb-19 09:30N 40°45' W 074°01'0 0.0
2018-Feb-19 09:00N 40°45' W 074°01'0 0.0
2018-Feb-19 08:24N 40°45' W 074°01'0 0.0
2018-Feb-19 08:00N 40°45' W 074°01'0 0.0
2018-Feb-19 07:30N 40°45' W 074°01'0 0.0
2018-Feb-19 07:00N 40°45' W 074°01'0 0.0
2018-Feb-19 06:30N 40°45' W 074°01'0 0.0
2018-Feb-19 06:00N 40°45' W 074°01'0 0.0
2018-Feb-19 05:30N 40°45' W 074°01'0 0.0
2018-Feb-19 05:00N 40°45' W 074°01'0 0.0
2018-Feb-19 04:30N 40°45' W 074°01'0 0.0
2018-Feb-19 04:00N 40°45' W 074°01'0 0.0
2018-Feb-19 03:30N 40°45' W 074°01'0 0.0
2018-Feb-19 03:00N 40°45' W 074°01'0 0.0
2018-Feb-19 02:30N 40°45' W 074°01'0 0.0
2018-Feb-19 02:00N 40°45' W 074°01'0 0.0
2018-Feb-19 01:30N 40°45' W 074°01'0 0.0
2018-Feb-19 01:00N 40°45' W 074°01'0 0.0
2018-Feb-19 00:30N 40°45' W 074°01'0 0.0
2018-Feb-19 00:00N 40°45' W 074°01'0 0.0
2018-Feb-18 23:30N 40°45' W 074°01'0 0.0
2018-Feb-18 23:00N 40°45' W 074°01'0 0.0
2018-Feb-18 22:30N 40°45' W 074°01'0 0.0
2018-Feb-18 22:00N 40°45' W 074°01'0 0.0
2018-Feb-18 21:30N 40°45' W 074°01'0 0.0
2018-Feb-18 21:00N 40°45' W 074°01'0 0.0
2018-Feb-18 20:30N 40°45' W 074°01'0 0.0
2018-Feb-18 20:00N 40°45' W 074°01'0 0.0
2018-Feb-18 19:30N 40°45' W 074°01'0 0.0
2018-Feb-18 19:00N 40°45' W 074°01'0 0.0
2018-Feb-18 18:30N 40°45' W 074°01'0 0.0
2018-Feb-18 18:00N 40°45' W 074°01'0 0.0
2018-Feb-18 17:30N 40°45' W 074°01'0 0.0
2018-Feb-18 17:00N 40°45' W 074°01'0 0.0
2018-Feb-18 16:30N 40°45' W 074°01'0 0.0
2018-Feb-18 16:00N 40°45' W 074°01'0 0.0
2018-Feb-18 15:30N 40°45' W 074°01'0 0.0
2018-Feb-18 15:00N 40°45' W 074°01'0 0.0
2018-Feb-18 14:30N 40°45' W 074°01'0 0.0
2018-Feb-18 14:00N 40°45' W 074°01'0 0.0
2018-Feb-18 13:30N 40°45' W 074°01'0 0.0
2018-Feb-18 13:00N 40°45' W 074°01'0 0.0
2018-Feb-18 12:30N 40°45' W 074°01'0 0.0
2018-Feb-18 12:00N 40°45' W 074°01'0 0.0
2018-Feb-18 11:30N 40°45' W 074°01'0 0.0
2018-Feb-18 11:00N 40°45' W 074°01'0 0.0
2018-Feb-18 10:30N 40°45' W 074°01'0 0.0
2018-Feb-18 10:00N 40°45' W 074°01'0 0.0
2018-Feb-18 09:30N 40°45' W 074°01'0 0.0
2018-Feb-18 09:00N 40°45' W 074°01'0 0.0
2018-Feb-18 08:28N 40°45' W 074°01'0 0.0
2018-Feb-18 08:00N 40°45' W 074°01'0 0.0
2018-Feb-18 07:30N 40°45' W 074°01'0 0.0
2018-Feb-18 07:00N 40°45' W 074°01'0 0.0
2018-Feb-18 06:30N 40°45' W 074°01'0 0.0
2018-Feb-18 06:00N 40°45' W 074°01'0 0.0
2018-Feb-18 05:27N 40°45' W 074°01'0 0.0
2018-Feb-18 05:00N 40°45' W 074°01'0 0.0
2018-Feb-18 04:30N 40°45' W 074°01'0 0.0
2018-Feb-18 04:00N 40°45' W 074°01'0 0.0
2018-Feb-18 03:30N 40°45' W 074°01'0 0.0
2018-Feb-18 03:00N 40°45' W 074°01'0 0.0
2018-Feb-18 02:30N 40°45' W 074°01'0 0.0
2018-Feb-18 02:00N 40°45' W 074°01'0 0.0
2018-Feb-18 01:30N 40°45' W 074°01'0 0.0
2018-Feb-18 01:00N 40°45' W 074°01'0 0.0
2018-Feb-18 00:30N 40°45' W 074°01'0 0.0
2018-Feb-18 00:00N 40°45' W 074°01'0 0.0
2018-Feb-17 23:30N 40°45' W 074°01'0 0.0
2018-Feb-17 23:00N 40°45' W 074°01'0 0.0
2018-Feb-17 22:30N 40°45' W 074°01'0 0.0
2018-Feb-17 22:00N 40°45' W 074°01'0 0.0
2018-Feb-17 21:30N 40°45' W 074°01'0 0.0
2018-Feb-17 21:00N 40°45' W 074°01'0 0.0
2018-Feb-17 20:30N 40°45' W 074°01'0 0.0
2018-Feb-17 20:00N 40°45' W 074°01'0 0.0
2018-Feb-17 19:30N 40°45' W 074°01'0 0.0
2018-Feb-17 19:00N 40°45' W 074°01'0 0.0
2018-Feb-17 18:30N 40°45' W 074°01'0 0.0
2018-Feb-17 18:00N 40°45' W 074°01'0 0.0
2018-Feb-17 17:30N 40°45' W 074°01'0 0.0
2018-Feb-17 17:00N 40°45' W 074°01'0 0.0
2018-Feb-17 16:30N 40°45' W 074°01'0 0.0
2018-Feb-17 16:00N 40°45' W 074°01'0 0.0
2018-Feb-17 15:30N 40°45' W 074°01'0 0.0
2018-Feb-17 15:00N 40°45' W 074°01'0 0.0
2018-Feb-17 14:30N 40°45' W 074°01'0 0.0
2018-Feb-17 14:00N 40°45' W 074°01'0 0.0
2018-Feb-17 13:30N 40°45' W 074°01'0 0.0
2018-Feb-17 13:00N 40°45' W 074°01'0 0.0
2018-Feb-17 12:30N 40°45' W 074°01'0 0.0
2018-Feb-17 12:00N 40°45' W 074°01'0 0.0
2018-Feb-17 11:30N 40°45' W 074°01'0 0.0
2018-Feb-17 11:00N 40°45' W 074°01'0 0.0
2018-Feb-17 10:30N 40°45' W 074°01'0 0.0
2018-Feb-17 10:00N 40°45' W 074°01'0 0.0
2018-Feb-17 09:30N 40°45' W 074°01'0 0.0
2018-Feb-17 09:00N 40°45' W 074°01'0 0.0
2018-Feb-17 08:30N 40°45' W 074°01'0 0.0
2018-Feb-17 08:00N 40°45' W 074°01'0 0.0
2018-Feb-17 07:30N 40°45' W 074°01'0 0.0
2018-Feb-17 07:00N 40°45' W 074°01'0 0.0
2018-Feb-17 06:30N 40°45' W 074°01'0 0.0
2018-Feb-17 06:00N 40°45' W 074°01'0 0.0
2018-Feb-17 05:30N 40°45' W 074°01'0 0.0
2018-Feb-17 05:00N 40°45' W 074°01'0 0.0
2018-Feb-17 04:30N 40°45' W 074°01'0 0.0
2018-Feb-17 04:00N 40°45' W 074°01'0 0.0
2018-Feb-17 03:30N 40°45' W 074°01'0 0.0
2018-Feb-17 03:00N 40°45' W 074°01'0 0.0
2018-Feb-17 02:30N 40°45' W 074°01'0 0.0
2018-Feb-17 02:00N 40°45' W 074°01'0 0.0
2018-Feb-17 01:30N 40°45' W 074°01'0 0.0
2018-Feb-17 01:00N 40°45' W 074°01'0 0.0
2018-Feb-17 00:30N 40°45' W 074°01'0 0.0
2018-Feb-17 00:00N 40°45' W 074°01'0 0.0
2018-Feb-16 23:30N 40°45' W 074°01'0 0.0
2018-Feb-16 23:00N 40°45' W 074°01'0 0.0
2018-Feb-16 22:30N 40°45' W 074°01'0 0.6
2018-Feb-16 21:59N 40°45' W 074°01'3 7.2
2018-Feb-16 21:30N 40°48' W 073°59'2 3.9
2018-Feb-16 21:00N 40°50' W 073°58'2 4.5
2018-Feb-16 20:30N 40°48' W 073°59'2 4.6
2018-Feb-16 20:00N 40°46' W 074°00'1 2.2
2018-Feb-16 19:28N 40°45' W 074°01'0 0.4
2018-Feb-16 19:00N 40°45' W 074°01'1 2.6
2018-Feb-16 18:29N 40°43' W 074°01'2 3.3
2018-Feb-16 17:59N 40°42' W 073°60'4 7.3
2018-Feb-16 17:30N 40°39' W 074°02'3 6.5
2018-Feb-16 17:00N 40°42' W 074°01'2 3.9
2018-Feb-16 16:24N 40°45' W 074°01'0 0.0
2018-Feb-16 16:00N 40°45' W 074°01'0 0.0
2018-Feb-16 15:30N 40°45' W 074°01'0 0.0
2018-Feb-16 15:00N 40°45' W 074°01'0 0.0
2018-Feb-16 14:30N 40°45' W 074°01'0 0.0
2018-Feb-16 14:00N 40°45' W 074°01'0 0.0
2018-Feb-16 13:30N 40°45' W 074°01'0 0.0
2018-Feb-16 13:00N 40°45' W 074°01'0 0.0
2018-Feb-16 12:30N 40°45' W 074°01'0 0.0
2018-Feb-16 12:00N 40°45' W 074°01'0 0.0
2018-Feb-16 11:30N 40°45' W 074°01'0 0.0
2018-Feb-16 10:59N 40°45' W 074°01'0 0.0
2018-Feb-16 10:29N 40°45' W 074°01'0 0.0
2018-Feb-16 09:59N 40°45' W 074°01'0 0.0
2018-Feb-16 09:29N 40°45' W 074°01'0 0.0
2018-Feb-16 08:59N 40°45' W 074°01'0 0.0
2018-Feb-16 08:29N 40°45' W 074°01'0 0.0
2018-Feb-16 07:59N 40°45' W 074°01'0 0.0
2018-Feb-16 07:29N 40°45' W 074°01'0 0.0
2018-Feb-16 06:59N 40°45' W 074°01'0 0.0
2018-Feb-16 06:29N 40°45' W 074°01'0 0.0
2018-Feb-16 05:59N 40°45' W 074°01'0 0.0
2018-Feb-16 05:29N 40°45' W 074°01'0 0.0
2018-Feb-16 04:53N 40°45' W 074°01'0 0.0
2018-Feb-16 04:29N 40°45' W 074°01'0 0.0
2018-Feb-16 03:58N 40°45' W 074°01'0 0.0
2018-Feb-16 03:28N 40°45' W 074°01'0 0.0
2018-Feb-16 02:58N 40°45' W 074°01'0 0.0
2018-Feb-16 02:28N 40°45' W 074°01'0 0.0
2018-Feb-16 01:58N 40°45' W 074°01'0 0.0
2018-Feb-16 01:29N 40°45' W 074°01'0 0.0
2018-Feb-16 00:59N 40°45' W 074°01'0 0.0
2018-Feb-16 00:28N 40°45' W 074°01'0 0.0
2018-Feb-15 23:59N 40°45' W 074°01'0 0.0
2018-Feb-15 23:28N 40°45' W 074°01'0 0.0
2018-Feb-15 22:59N 40°45' W 074°01'0 0.0
2018-Feb-15 22:28N 40°45' W 074°01'0 0.0
2018-Feb-15 21:59N 40°45' W 074°01'0 0.0
2018-Feb-15 21:28N 40°45' W 074°01'0 1.0
2018-Feb-15 21:00N 40°45' W 074°01'1 0.9
2018-Feb-15 20:27N 40°45' W 074°01'2 5.0
2018-Feb-15 20:00N 40°42' W 074°01'3 5.9
2018-Feb-15 19:30N 40°44' W 073°58'1 1.1
2018-Feb-15 18:59N 40°44' W 073°58'3 6.0
2018-Feb-15 18:30N 40°42' W 074°01'3 5.9
2018-Feb-15 17:59N 40°45' W 074°01'0 0.0
2018-Feb-15 17:29N 40°45' W 074°01'0 0.0
2018-Feb-15 16:59N 40°45' W 074°01'0 0.0
2018-Feb-15 16:29N 40°45' W 074°01'0 0.0
2018-Feb-15 15:59N 40°45' W 074°01'0 0.0
2018-Feb-15 15:29N 40°45' W 074°01'0 0.0
2018-Feb-15 14:59N 40°45' W 074°01'0 0.0
2018-Feb-15 14:29N 40°45' W 074°01'0 0.0
2018-Feb-15 13:59N 40°45' W 074°01'0 0.0
2018-Feb-15 13:29N 40°45' W 074°01'0 0.0
2018-Feb-15 12:59N 40°45' W 074°01'0 0.0
2018-Feb-15 12:29N 40°45' W 074°01'0 0.0
2018-Feb-15 11:59N 40°45' W 074°01'0 0.0
2018-Feb-15 11:28N 40°45' W 074°01'0 0.0
2018-Feb-15 10:56N 40°45' W 074°01'0 0.0
2018-Feb-15 10:29N 40°45' W 074°01'0 0.0
2018-Feb-15 09:59N 40°45' W 074°01'0 0.0
2018-Feb-15 09:29N 40°45' W 074°01'0 0.0
2018-Feb-15 08:59N 40°45' W 074°01'0 0.0
2018-Feb-15 08:29N 40°45' W 074°01'0 0.0
2018-Feb-15 07:59N 40°45' W 074°01'0 0.0
2018-Feb-15 07:29N 40°45' W 074°01'0 0.0
2018-Feb-15 06:59N 40°45' W 074°01'0 0.0
2018-Feb-15 06:23N 40°45' W 074°01'0 0.0
2018-Feb-15 05:59N 40°45' W 074°01'0 0.0
2018-Feb-15 05:29N 40°45' W 074°01'0 0.0
2018-Feb-15 04:59N 40°45' W 074°01'0 0.0
2018-Feb-15 04:29N 40°45' W 074°01'0 0.0
2018-Feb-15 03:59N 40°45' W 074°01'0 0.0
2018-Feb-15 03:29N 40°45' W 074°01'0 0.0
2018-Feb-15 02:59N 40°45' W 074°01'0 0.0
2018-Feb-15 02:29N 40°45' W 074°01'0 0.0
2018-Feb-15 01:59N 40°45' W 074°01'0 0.0
2018-Feb-15 01:29N 40°45' W 074°01'0 0.0
2018-Feb-15 00:59N 40°45' W 074°01'0 0.0
2018-Feb-15 00:29N 40°45' W 074°01'0 0.0
2018-Feb-14 23:59N 40°45' W 074°01'0 0.0
2018-Feb-14 23:29N 40°45' W 074°01'0 0.0
2018-Feb-14 22:59N 40°45' W 074°01'0 0.0
2018-Feb-14 22:29N 40°45' W 074°01'0 0.0
2018-Feb-14 21:59N 40°45' W 074°01'0 0.0
2018-Feb-14 21:29N 40°45' W 074°01'0 0.0
2018-Feb-14 20:59N 40°45' W 074°01'0 0.0
2018-Feb-14 20:29N 40°45' W 074°01'0 0.0
2018-Feb-14 19:59N 40°45' W 074°01'0 0.0
2018-Feb-14 19:29N 40°45' W 074°01'1 2.0
2018-Feb-14 19:00N 40°44' W 074°01'3 5.2
2018-Feb-14 18:30N 40°41' W 074°02'2 3.9
2018-Feb-14 18:00N 40°43' W 074°02'2 3.3
2018-Feb-14 17:30N 40°45' W 074°01'0 0.0
2018-Feb-14 17:00N 40°45' W 074°01'0 0.0
2018-Feb-14 16:30N 40°45' W 074°01'0 0.0
2018-Feb-14 15:57N 40°45' W 074°01'0 0.0
2018-Feb-14 15:30N 40°45' W 074°01'0 0.0
2018-Feb-14 15:00N 40°45' W 074°01'0 0.0
2018-Feb-14 14:30N 40°45' W 074°01'0 0.0
2018-Feb-14 14:00N 40°45' W 074°01'0 0.0
2018-Feb-14 13:30N 40°45' W 074°01'0 0.0
2018-Feb-14 13:00N 40°45' W 074°01'0 0.0
2018-Feb-14 12:30N 40°45' W 074°01'0 0.0
2018-Feb-14 12:00N 40°45' W 074°01'0 0.0
2018-Feb-14 11:30N 40°45' W 074°01'0 0.0
2018-Feb-14 10:58N 40°45' W 074°01'0 0.0
2018-Feb-14 10:28N 40°45' W 074°01'0 0.0
2018-Feb-14 09:58N 40°45' W 074°01'0 0.0
2018-Feb-14 09:28N 40°45' W 074°01'0 0.0
2018-Feb-14 08:58N 40°45' W 074°01'0 0.0
2018-Feb-14 08:28N 40°45' W 074°01'0 0.0
2018-Feb-14 07:58N 40°45' W 074°01'0 0.0
2018-Feb-14 07:28N 40°45' W 074°01'0 0.0
2018-Feb-14 06:58N 40°45' W 074°01'0 0.0
2018-Feb-14 06:30N 40°45' W 074°01'0 0.0
2018-Feb-14 05:59N 40°45' W 074°01'0 0.0
2018-Feb-14 05:29N 40°45' W 074°01'0 0.0
2018-Feb-14 05:00N 40°45' W 074°01'0 0.0
2018-Feb-14 04:28N 40°45' W 074°01'0 0.0
2018-Feb-14 03:58N 40°45' W 074°01'0 0.0
2018-Feb-14 03:28N 40°45' W 074°01'0 0.0
2018-Feb-14 02:58N 40°45' W 074°01'0 0.0
2018-Feb-14 02:28N 40°45' W 074°01'0 0.0
2018-Feb-14 01:58N 40°45' W 074°01'0 0.0
2018-Feb-14 01:28N 40°45' W 074°01'0 0.0
2018-Feb-14 00:58N 40°45' W 074°01'0 0.0
2018-Feb-14 00:28N 40°45' W 074°01'0 0.0
2018-Feb-13 23:58N 40°45' W 074°01'0 0.0
2018-Feb-13 23:28N 40°45' W 074°01'0 0.0
2018-Feb-13 22:58N 40°45' W 074°01'1 1.1
2018-Feb-13 22:30N 40°45' W 074°01'3 5.7
2018-Feb-13 22:00N 40°48' W 073°59'2 4.7
2018-Feb-13 21:30N 40°50' W 073°58'1 1.8
2018-Feb-13 21:00N 40°49' W 073°58'4 7.1
2018-Feb-13 20:30N 40°46' W 074°00'1 2.6
2018-Feb-13 20:00N 40°45' W 074°01'0 0.0
2018-Feb-13 19:30N 40°45' W 074°01'0 0.0
2018-Feb-13 19:00N 40°45' W 074°01'0 0.0
2018-Feb-13 18:30N 40°45' W 074°01'0 0.0
2018-Feb-13 18:00N 40°45' W 074°01'0 0.0
2018-Feb-13 17:30N 40°45' W 074°01'0 0.0
2018-Feb-13 17:00N 40°45' W 074°01'0 0.0
2018-Feb-13 16:30N 40°45' W 074°01'0 0.0
2018-Feb-13 16:00N 40°45' W 074°01'0 0.0
2018-Feb-13 15:30N 40°45' W 074°01'0 0.0
2018-Feb-13 15:00N 40°45' W 074°01'0 0.0
2018-Feb-13 14:30N 40°45' W 074°01'0 0.0
2018-Feb-13 14:00N 40°45' W 074°01'0 0.0
2018-Feb-13 13:30N 40°45' W 074°01'0 0.0
2018-Feb-13 13:00N 40°45' W 074°01'0 0.0
2018-Feb-13 12:30N 40°45' W 074°01'0 0.0
2018-Feb-13 12:00N 40°45' W 074°01'0 0.0
2018-Feb-13 11:30N 40°45' W 074°01'0 0.0
2018-Feb-13 11:00N 40°45' W 074°01'0 0.0
2018-Feb-13 10:30N 40°45' W 074°01'0 0.0
2018-Feb-13 10:00N 40°45' W 074°01'0 0.0
2018-Feb-13 09:30N 40°45' W 074°01'0 0.0
2018-Feb-13 09:00N 40°45' W 074°01'0 0.0
2018-Feb-13 08:30N 40°45' W 074°01'0 0.0
2018-Feb-13 08:00N 40°45' W 074°01'0 0.0
2018-Feb-13 07:30N 40°45' W 074°01'0 0.0
2018-Feb-13 07:00N 40°45' W 074°01'0 0.0
2018-Feb-13 06:30N 40°45' W 074°01'0 0.0
2018-Feb-13 06:00N 40°45' W 074°01'0 0.0
2018-Feb-13 05:30N 40°45' W 074°01'0 0.0
2018-Feb-13 05:00N 40°45' W 074°01'0 0.0
2018-Feb-13 04:30N 40°45' W 074°01'0 0.0
2018-Feb-13 04:00N 40°45' W 074°01'0 0.0
2018-Feb-13 03:30N 40°45' W 074°01'0 0.0
2018-Feb-13 03:00N 40°45' W 074°01'0 0.0
2018-Feb-13 02:30N 40°45' W 074°01'0 0.0
2018-Feb-13 01:57N 40°45' W 074°01'0 0.0
2018-Feb-13 01:30N 40°45' W 074°01'0 0.0
2018-Feb-13 01:00N 40°45' W 074°01'0 0.0
2018-Feb-13 00:30N 40°45' W 074°01'0 0.0
2018-Feb-13 00:00N 40°45' W 074°01'0 0.0
2018-Feb-12 23:30N 40°45' W 074°01'0 0.1
2018-Feb-12 23:00N 40°45' W 074°01'3 5.4
2018-Feb-12 22:31N 40°42' W 074°02'3 4.9
2018-Feb-12 21:58N 40°45' W 074°01'1 2.7
2018-Feb-12 21:30N 40°46' W 074°00'510.3
2018-Feb-12 21:00N 40°51' W 073°57'1 2.6
2018-Feb-12 20:30N 40°49' W 073°58'4 7.1
2018-Feb-12 20:00N 40°46' W 074°00'2 2.7
2018-Feb-12 19:27N 40°45' W 074°01'0 0.0
2018-Feb-12 19:00N 40°45' W 074°01'0 0.0
2018-Feb-12 18:30N 40°45' W 074°01'0 0.0
2018-Feb-12 17:57N 40°45' W 074°01'0 0.0
2018-Feb-12 17:30N 40°45' W 074°01'0 0.0
2018-Feb-12 17:00N 40°45' W 074°01'0 0.0
2018-Feb-12 16:30N 40°45' W 074°01'0 0.0
2018-Feb-12 16:00N 40°45' W 074°01'0 0.0
2018-Feb-12 15:18N 40°45' W 074°01'0 0.0
2018-Feb-12 15:00N 40°45' W 074°01'0 0.0
2018-Feb-12 14:30N 40°45' W 074°01'0 0.0
2018-Feb-12 14:00N 40°45' W 074°01'0 0.0
2018-Feb-12 13:30N 40°45' W 074°01'0 0.0
2018-Feb-12 13:00N 40°45' W 074°01'0 0.0
2018-Feb-12 12:30N 40°45' W 074°01'0 0.0
2018-Feb-12 12:00N 40°45' W 074°01'0 0.0
2018-Feb-12 11:30N 40°45' W 074°01'0 0.0
2018-Feb-12 10:59N 40°45' W 074°01'0 0.0
2018-Feb-12 10:26N 40°45' W 074°01'0 0.0
2018-Feb-12 09:59N 40°45' W 074°01'0 0.0
2018-Feb-12 09:29N 40°45' W 074°01'0 0.2
2018-Feb-12 09:00N 40°45' W 074°01'0 0.2
2018-Feb-12 08:30N 40°45' W 074°01'0 0.0
2018-Feb-12 08:00N 40°45' W 074°01'0 0.0
2018-Feb-12 07:30N 40°45' W 074°01'0 0.0
2018-Feb-12 07:00N 40°45' W 074°01'0 0.0
2018-Feb-12 06:30N 40°45' W 074°01'0 0.0
2018-Feb-12 06:00N 40°45' W 074°01'0 0.0
2018-Feb-12 05:30N 40°45' W 074°01'0 0.0
2018-Feb-12 05:00N 40°45' W 074°01'0 0.0
2018-Feb-12 04:30N 40°45' W 074°01'0 0.0
2018-Feb-12 04:00N 40°45' W 074°01'0 0.0
2018-Feb-12 03:30N 40°45' W 074°01'0 0.0
2018-Feb-12 03:00N 40°45' W 074°01'0 0.0
2018-Feb-12 02:30N 40°45' W 074°01'0 0.0
2018-Feb-12 02:00N 40°45' W 074°01'0 0.0
2018-Feb-12 01:30N 40°45' W 074°01'0 0.0
2018-Feb-12 01:00N 40°45' W 074°01'1 1.1
2018-Feb-12 00:30N 40°44' W 074°01'1 1.1
2018-Feb-12 00:00N 40°45' W 074°01'0 0.0
2018-Feb-11 23:30N 40°45' W 074°01'0 0.0
2018-Feb-11 23:00N 40°45' W 074°01'0 0.0
2018-Feb-11 22:28N 40°45' W 074°01'0 0.0
2018-Feb-11 21:58N 40°45' W 074°01'0 0.0
2018-Feb-11 21:28N 40°45' W 074°01'0 0.0
2018-Feb-11 20:58N 40°45' W 074°01'0 0.0
2018-Feb-11 20:28N 40°45' W 074°01'0 0.0
2018-Feb-11 19:58N 40°45' W 074°01'0 0.0
2018-Feb-11 19:28N 40°45' W 074°01'0 0.0
2018-Feb-11 18:58N 40°45' W 074°01'0 0.0
2018-Feb-11 18:28N 40°45' W 074°01'0 0.0
2018-Feb-11 17:58N 40°45' W 074°01'0 0.0
2018-Feb-11 17:28N 40°45' W 074°01'0 0.0
2018-Feb-11 16:58N 40°45' W 074°01'0 0.0
2018-Feb-11 16:28N 40°45' W 074°01'0 0.0
2018-Feb-11 15:58N 40°45' W 074°01'0 0.0
2018-Feb-11 15:28N 40°45' W 074°01'0 0.0
2018-Feb-11 14:58N 40°45' W 074°01'0 0.0
2018-Feb-11 14:28N 40°45' W 074°01'0 0.0
2018-Feb-11 13:58N 40°45' W 074°01'0 0.0
2018-Feb-11 13:28N 40°45' W 074°01'0 0.0
2018-Feb-11 12:58N 40°45' W 074°01'0 0.0
2018-Feb-11 12:28N 40°45' W 074°01'0 0.0
2018-Feb-11 11:58N 40°45' W 074°01'0 0.0
2018-Feb-11 11:28N 40°45' W 074°01'  
Track history (hours):
 
Tides and Currents Weather Stations Pressure Air Temp Water Temp Dewpoint Dewpoint Depression Visibility Wind Speed Wind Dir Waves Ship Positions

Sima

Owner: M Cooper LLC, New York, NY. More information available from US FCC via Universal Licensing System and Coast Guard Vessel Documentation Center.

Last reported at 2018-Feb-21 11:00 UTC. Time now 2018-Feb-21 11:03 UTC.
Position N 40°45' W 074°01'.

Length 32 m.

Type: Pleasure craft. MMSI: 367416660.

Date/timePositionNaut miles runAvg speedWind from/ knotsBaromVisibWave heightAir tempDewpointWater temp
2018-Feb-21 11:00N 40°45' W 074°01'0 0.0
2018-Feb-21 10:30N 40°45' W 074°01'0 0.0
2018-Feb-21 10:00N 40°45' W 074°01'0 0.0
2018-Feb-21 09:30N 40°45' W 074°01'0 0.0
2018-Feb-21 08:57N 40°45' W 074°01'0 0.0
2018-Feb-21 08:30N 40°45' W 074°01'0 0.0
2018-Feb-21 08:00N 40°45' W 074°01'0 0.0
2018-Feb-21 07:30N 40°45' W 074°01'0 0.0
2018-Feb-21 07:00N 40°45' W 074°01'0 0.0
2018-Feb-21 06:30N 40°45' W 074°01'0 0.0
2018-Feb-21 06:00N 40°45' W 074°01'0 0.0
2018-Feb-21 05:30N 40°45' W 074°01'0 0.0
2018-Feb-21 05:00N 40°45' W 074°01'0 0.0
2018-Feb-21 04:30N 40°45' W 074°01'0 0.0
2018-Feb-21 04:00N 40°45' W 074°01'0 0.0
2018-Feb-21 03:30N 40°45' W 074°01'0 0.0
2018-Feb-21 03:00N 40°45' W 074°01'0 0.0
2018-Feb-21 02:30N 40°45' W 074°01'0 0.0
2018-Feb-21 02:00N 40°45' W 074°01'0 0.0
2018-Feb-21 01:30N 40°45' W 074°01'0 0.0
2018-Feb-21 01:00N 40°45' W 074°01'0 0.0
2018-Feb-21 00:30N 40°45' W 074°01'0 0.3
2018-Feb-21 00:00N 40°45' W 074°01'3 5.4
2018-Feb-20 23:30N 40°42' W 074°01'1 2.0
2018-Feb-20 23:00N 40°41' W 074°02'4 6.7
2018-Feb-20 22:29N 40°45' W 074°01'0 0.0
2018-Feb-20 21:59N 40°45' W 074°01'1 2.5
2018-Feb-20 21:30N 40°46' W 074°00'3 4.9
2018-Feb-20 20:59N 40°48' W 073°59'3 6.2
2018-Feb-20 20:29N 40°45' W 074°01'1 1.5
2018-Feb-20 20:00N 40°45' W 074°01'0 0.0
2018-Feb-20 19:30N 40°45' W 074°01'0 0.6
2018-Feb-20 18:58N 40°44' W 074°01'1 2.7
2018-Feb-20 18:30N 40°43' W 074°01'2 3.5
2018-Feb-20 18:00N 40°43' W 073°59'2 4.0
2018-Feb-20 17:30N 40°43' W 074°01'2 3.8
2018-Feb-20 17:00N 40°45' W 074°01'0 0.0
2018-Feb-20 16:30N 40°45' W 074°01'0 0.0
2018-Feb-20 16:00N 40°45' W 074°01'0 0.0
2018-Feb-20 15:30N 40°45' W 074°01'0 0.0
2018-Feb-20 15:00N 40°45' W 074°01'0 0.0
2018-Feb-20 14:30N 40°45' W 074°01'0 0.0
2018-Feb-20 14:00N 40°45' W 074°01'0 0.0
2018-Feb-20 13:30N 40°45' W 074°01'0 0.0
2018-Feb-20 13:00N 40°45' W 074°01'0 0.0
2018-Feb-20 12:30N 40°45' W 074°01'0 0.0
2018-Feb-20 12:00N 40°45' W 074°01'0 0.0
2018-Feb-20 11:30N 40°45' W 074°01'0 0.0
2018-Feb-20 11:00N 40°45' W 074°01'0 0.0
2018-Feb-20 10:29N 40°45' W 074°01'0 0.0
2018-Feb-20 09:59N 40°45' W 074°01'0 0.0
2018-Feb-20 09:29N 40°45' W 074°01'0 0.0
2018-Feb-20 08:59N 40°45' W 074°01'0 0.0
2018-Feb-20 08:29N 40°45' W 074°01'0 0.0
2018-Feb-20 07:59N 40°45' W 074°01'0 0.0
2018-Feb-20 07:29N 40°45' W 074°01'0 0.0
2018-Feb-20 06:59N 40°45' W 074°01'0 0.0
2018-Feb-20 06:29N 40°45' W 074°01'0 0.0
2018-Feb-20 05:59N 40°45' W 074°01'0 0.0
2018-Feb-20 05:29N 40°45' W 074°01'0 0.0
2018-Feb-20 04:59N 40°45' W 074°01'0 0.0
2018-Feb-20 04:29N 40°45' W 074°01'0 0.0
2018-Feb-20 03:59N 40°45' W 074°01'0 0.0
2018-Feb-20 03:29N 40°45' W 074°01'0 0.0
2018-Feb-20 02:59N 40°45' W 074°01'0 0.0
2018-Feb-20 02:29N 40°45' W 074°01'0 0.0
2018-Feb-20 01:59N 40°45' W 074°01'0 0.0
2018-Feb-20 01:30N 40°45' W 074°01'0 0.0
2018-Feb-20 01:00N 40°45' W 074°01'0 0.0
2018-Feb-20 00:30N 40°45' W 074°01'0 0.0
2018-Feb-20 00:00N 40°45' W 074°01'0 0.0
2018-Feb-19 23:30N 40°45' W 074°01'0 0.0
2018-Feb-19 23:00N 40°45' W 074°01'0 0.0
2018-Feb-19 22:30N 40°45' W 074°01'0 0.0
2018-Feb-19 21:57N 40°45' W 074°01'0 0.0
2018-Feb-19 21:24N 40°45' W 074°01'0 0.0
2018-Feb-19 21:00N 40°45' W 074°01'0 0.0
2018-Feb-19 20:27N 40°45' W 074°01'0 0.0
2018-Feb-19 20:00N 40°45' W 074°01'0 0.0
2018-Feb-19 19:30N 40°45' W 074°01'0 0.0
2018-Feb-19 19:00N 40°45' W 074°01'0 0.0
2018-Feb-19 18:30N 40°45' W 074°01'0 0.0
2018-Feb-19 18:00N 40°45' W 074°01'0 0.0
2018-Feb-19 17:30N 40°45' W 074°01'0 0.0
2018-Feb-19 17:00N 40°45' W 074°01'0 0.0
2018-Feb-19 16:30N 40°45' W 074°01'0 0.0
2018-Feb-19 16:00N 40°45' W 074°01'0 0.0
2018-Feb-19 15:30N 40°45' W 074°01'0 0.0
2018-Feb-19 15:00N 40°45' W 074°01'0 0.0
2018-Feb-19 14:30N 40°45' W 074°01'0 0.0
2018-Feb-19 14:00N 40°45' W 074°01'0 0.0
2018-Feb-19 13:30N 40°45' W 074°01'0 0.0
2018-Feb-19 13:00N 40°45' W 074°01'0 0.0
2018-Feb-19 12:30N 40°45' W 074°01'0 0.0
2018-Feb-19 12:00N 40°45' W 074°01'0 0.0
2018-Feb-19 11:30N 40°45' W 074°01'0 0.0
2018-Feb-19 11:00N 40°45' W 074°01'0 0.0
2018-Feb-19 10:30N 40°45' W 074°01'0 0.0
2018-Feb-19 10:00N 40°45' W 074°01'0 0.0
2018-Feb-19 09:30N 40°45' W 074°01'0 0.0
2018-Feb-19 09:00N 40°45' W 074°01'0 0.0
2018-Feb-19 08:24N 40°45' W 074°01'0 0.0
2018-Feb-19 08:00N 40°45' W 074°01'0 0.0
2018-Feb-19 07:30N 40°45' W 074°01'0 0.0
2018-Feb-19 07:00N 40°45' W 074°01'0 0.0
2018-Feb-19 06:30N 40°45' W 074°01'0 0.0
2018-Feb-19 06:00N 40°45' W 074°01'0 0.0
2018-Feb-19 05:30N 40°45' W 074°01'0 0.0
2018-Feb-19 05:00N 40°45' W 074°01'0 0.0
2018-Feb-19 04:30N 40°45' W 074°01'0 0.0
2018-Feb-19 04:00N 40°45' W 074°01'0 0.0
2018-Feb-19 03:30N 40°45' W 074°01'0 0.0
2018-Feb-19 03:00N 40°45' W 074°01'0 0.0
2018-Feb-19 02:30N 40°45' W 074°01'0 0.0
2018-Feb-19 02:00N 40°45' W 074°01'0 0.0
2018-Feb-19 01:30N 40°45' W 074°01'0 0.0
2018-Feb-19 01:00N 40°45' W 074°01'0 0.0
2018-Feb-19 00:30N 40°45' W 074°01'0 0.0
2018-Feb-19 00:00N 40°45' W 074°01'0 0.0
2018-Feb-18 23:30N 40°45' W 074°01'0 0.0
2018-Feb-18 23:00N 40°45' W 074°01'0 0.0
2018-Feb-18 22:30N 40°45' W 074°01'0 0.0
2018-Feb-18 22:00N 40°45' W 074°01'0 0.0
2018-Feb-18 21:30N 40°45' W 074°01'0 0.0
2018-Feb-18 21:00N 40°45' W 074°01'0 0.0
2018-Feb-18 20:30N 40°45' W 074°01'0 0.0
2018-Feb-18 20:00N 40°45' W 074°01'0 0.0
2018-Feb-18 19:30N 40°45' W 074°01'0 0.0
2018-Feb-18 19:00N 40°45' W 074°01'0 0.0
2018-Feb-18 18:30N 40°45' W 074°01'0 0.0
2018-Feb-18 18:00N 40°45' W 074°01'0 0.0
2018-Feb-18 17:30N 40°45' W 074°01'0 0.0
2018-Feb-18 17:00N 40°45' W 074°01'0 0.0
2018-Feb-18 16:30N 40°45' W 074°01'0 0.0
2018-Feb-18 16:00N 40°45' W 074°01'0 0.0
2018-Feb-18 15:30N 40°45' W 074°01'0 0.0
2018-Feb-18 15:00N 40°45' W 074°01'0 0.0
2018-Feb-18 14:30N 40°45' W 074°01'0 0.0
2018-Feb-18 14:00N 40°45' W 074°01'0 0.0
2018-Feb-18 13:30N 40°45' W 074°01'0 0.0
2018-Feb-18 13:00N 40°45' W 074°01'0 0.0
2018-Feb-18 12:30N 40°45' W 074°01'0 0.0
2018-Feb-18 12:00N 40°45' W 074°01'0 0.0
2018-Feb-18 11:30N 40°45' W 074°01'0 0.0
2018-Feb-18 11:00N 40°45' W 074°01'0 0.0
2018-Feb-18 10:30N 40°45' W 074°01'0 0.0
2018-Feb-18 10:00N 40°45' W 074°01'0 0.0
2018-Feb-18 09:30N 40°45' W 074°01'0 0.0
2018-Feb-18 09:00N 40°45' W 074°01'0 0.0
2018-Feb-18 08:28N 40°45' W 074°01'0 0.0
2018-Feb-18 08:00N 40°45' W 074°01'0 0.0
2018-Feb-18 07:30N 40°45' W 074°01'0 0.0
2018-Feb-18 07:00N 40°45' W 074°01'0 0.0
2018-Feb-18 06:30N 40°45' W 074°01'0 0.0
2018-Feb-18 06:00N 40°45' W 074°01'0 0.0
2018-Feb-18 05:27N 40°45' W 074°01'0 0.0
2018-Feb-18 05:00N 40°45' W 074°01'0 0.0
2018-Feb-18 04:30N 40°45' W 074°01'0 0.0
2018-Feb-18 04:00N 40°45' W 074°01'0 0.0
2018-Feb-18 03:30N 40°45' W 074°01'0 0.0
2018-Feb-18 03:00N 40°45' W 074°01'0 0.0
2018-Feb-18 02:30N 40°45' W 074°01'0 0.0
2018-Feb-18 02:00N 40°45' W 074°01'0 0.0
2018-Feb-18 01:30N 40°45' W 074°01'0 0.0
2018-Feb-18 01:00N 40°45' W 074°01'0 0.0
2018-Feb-18 00:30N 40°45' W 074°01'0 0.0
2018-Feb-18 00:00N 40°45' W 074°01'0 0.0
2018-Feb-17 23:30N 40°45' W 074°01'0 0.0
2018-Feb-17 23:00N 40°45' W 074°01'0 0.0
2018-Feb-17 22:30N 40°45' W 074°01'0 0.0
2018-Feb-17 22:00N 40°45' W 074°01'0 0.0
2018-Feb-17 21:30N 40°45' W 074°01'0 0.0
2018-Feb-17 21:00N 40°45' W 074°01'0 0.0
2018-Feb-17 20:30N 40°45' W 074°01'0 0.0
2018-Feb-17 20:00N 40°45' W 074°01'0 0.0
2018-Feb-17 19:30N 40°45' W 074°01'0 0.0
2018-Feb-17 19:00N 40°45' W 074°01'0 0.0
2018-Feb-17 18:30N 40°45' W 074°01'0 0.0
2018-Feb-17 18:00N 40°45' W 074°01'0 0.0
2018-Feb-17 17:30N 40°45' W 074°01'0 0.0
2018-Feb-17 17:00N 40°45' W 074°01'0 0.0
2018-Feb-17 16:30N 40°45' W 074°01'0 0.0
2018-Feb-17 16:00N 40°45' W 074°01'0 0.0
2018-Feb-17 15:30N 40°45' W 074°01'0 0.0
2018-Feb-17 15:00N 40°45' W 074°01'0 0.0
2018-Feb-17 14:30N 40°45' W 074°01'0 0.0
2018-Feb-17 14:00N 40°45' W 074°01'0 0.0
2018-Feb-17 13:30N 40°45' W 074°01'0 0.0
2018-Feb-17 13:00N 40°45' W 074°01'0 0.0
2018-Feb-17 12:30N 40°45' W 074°01'0 0.0
2018-Feb-17 12:00N 40°45' W 074°01'0 0.0
2018-Feb-17 11:30N 40°45' W 074°01'0 0.0
2018-Feb-17 11:00N 40°45' W 074°01'0 0.0
2018-Feb-17 10:30N 40°45' W 074°01'0 0.0
2018-Feb-17 10:00N 40°45' W 074°01'0 0.0
2018-Feb-17 09:30N 40°45' W 074°01'0 0.0
2018-Feb-17 09:00N 40°45' W 074°01'0 0.0
2018-Feb-17 08:30N 40°45' W 074°01'0 0.0
2018-Feb-17 08:00N 40°45' W 074°01'0 0.0
2018-Feb-17 07:30N 40°45' W 074°01'0 0.0
2018-Feb-17 07:00N 40°45' W 074°01'0 0.0
2018-Feb-17 06:30N 40°45' W 074°01'0 0.0
2018-Feb-17 06:00N 40°45' W 074°01'0 0.0
2018-Feb-17 05:30N 40°45' W 074°01'0 0.0
2018-Feb-17 05:00N 40°45' W 074°01'0 0.0
2018-Feb-17 04:30N 40°45' W 074°01'0 0.0
2018-Feb-17 04:00N 40°45' W 074°01'0 0.0
2018-Feb-17 03:30N 40°45' W 074°01'0 0.0
2018-Feb-17 03:00N 40°45' W 074°01'0 0.0
2018-Feb-17 02:30N 40°45' W 074°01'0 0.0
2018-Feb-17 02:00N 40°45' W 074°01'0 0.0
2018-Feb-17 01:30N 40°45' W 074°01'0 0.0
2018-Feb-17 01:00N 40°45' W 074°01'0 0.0
2018-Feb-17 00:30N 40°45' W 074°01'0 0.0
2018-Feb-17 00:00N 40°45' W 074°01'0 0.0
2018-Feb-16 23:30N 40°45' W 074°01'0 0.0
2018-Feb-16 23:00N 40°45' W 074°01'0 0.0
2018-Feb-16 22:30N 40°45' W 074°01'0 0.6
2018-Feb-16 21:59N 40°45' W 074°01'3 7.2
2018-Feb-16 21:30N 40°48' W 073°59'2 3.9
2018-Feb-16 21:00N 40°50' W 073°58'2 4.5
2018-Feb-16 20:30N 40°48' W 073°59'2 4.6
2018-Feb-16 20:00N 40°46' W 074°00'1 2.2
2018-Feb-16 19:28N 40°45' W 074°01'0 0.4
2018-Feb-16 19:00N 40°45' W 074°01'1 2.6
2018-Feb-16 18:29N 40°43' W 074°01'2 3.3
2018-Feb-16 17:59N 40°42' W 073°60'4 7.3
2018-Feb-16 17:30N 40°39' W 074°02'3 6.5
2018-Feb-16 17:00N 40°42' W 074°01'2 3.9
2018-Feb-16 16:24N 40°45' W 074°01'0 0.0
2018-Feb-16 16:00N 40°45' W 074°01'0 0.0
2018-Feb-16 15:30N 40°45' W 074°01'0 0.0
2018-Feb-16 15:00N 40°45' W 074°01'0 0.0
2018-Feb-16 14:30N 40°45' W 074°01'0 0.0
2018-Feb-16 14:00N 40°45' W 074°01'0 0.0
2018-Feb-16 13:30N 40°45' W 074°01'0 0.0
2018-Feb-16 13:00N 40°45' W 074°01'0 0.0
2018-Feb-16 12:30N 40°45' W 074°01'0 0.0
2018-Feb-16 12:00N 40°45' W 074°01'0 0.0
2018-Feb-16 11:30N 40°45' W 074°01'0 0.0
2018-Feb-16 10:59N 40°45' W 074°01'0 0.0
2018-Feb-16 10:29N 40°45' W 074°01'0 0.0
2018-Feb-16 09:59N 40°45' W 074°01'0 0.0
2018-Feb-16 09:29N 40°45' W 074°01'0 0.0
2018-Feb-16 08:59N 40°45' W 074°01'0 0.0
2018-Feb-16 08:29N 40°45' W 074°01'0 0.0
2018-Feb-16 07:59N 40°45' W 074°01'0 0.0
2018-Feb-16 07:29N 40°45' W 074°01'0 0.0
2018-Feb-16 06:59N 40°45' W 074°01'0 0.0
2018-Feb-16 06:29N 40°45' W 074°01'0 0.0
2018-Feb-16 05:59N 40°45' W 074°01'0 0.0
2018-Feb-16 05:29N 40°45' W 074°01'0 0.0
2018-Feb-16 04:53N 40°45' W 074°01'0 0.0
2018-Feb-16 04:29N 40°45' W 074°01'0 0.0
2018-Feb-16 03:58N 40°45' W 074°01'0 0.0
2018-Feb-16 03:28N 40°45' W 074°01'0 0.0
2018-Feb-16 02:58N 40°45' W 074°01'0 0.0
2018-Feb-16 02:28N 40°45' W 074°01'0 0.0
2018-Feb-16 01:58N 40°45' W 074°01'0 0.0
2018-Feb-16 01:29N 40°45' W 074°01'0 0.0
2018-Feb-16 00:59N 40°45' W 074°01'0 0.0
2018-Feb-16 00:28N 40°45' W 074°01'0 0.0
2018-Feb-15 23:59N 40°45' W 074°01'0 0.0
2018-Feb-15 23:28N 40°45' W 074°01'0 0.0
2018-Feb-15 22:59N 40°45' W 074°01'0 0.0
2018-Feb-15 22:28N 40°45' W 074°01'0 0.0
2018-Feb-15 21:59N 40°45' W 074°01'0 0.0
2018-Feb-15 21:28N 40°45' W 074°01'0 1.0
2018-Feb-15 21:00N 40°45' W 074°01'1 0.9
2018-Feb-15 20:27N 40°45' W 074°01'2 5.0
2018-Feb-15 20:00N 40°42' W 074°01'3 5.9
2018-Feb-15 19:30N 40°44' W 073°58'1 1.1
2018-Feb-15 18:59N 40°44' W 073°58'3 6.0
2018-Feb-15 18:30N 40°42' W 074°01'3 5.9
2018-Feb-15 17:59N 40°45' W 074°01'0 0.0
2018-Feb-15 17:29N 40°45' W 074°01'0 0.0
2018-Feb-15 16:59N 40°45' W 074°01'0 0.0
2018-Feb-15 16:29N 40°45' W 074°01'0 0.0
2018-Feb-15 15:59N 40°45' W 074°01'0 0.0
2018-Feb-15 15:29N 40°45' W 074°01'0 0.0
2018-Feb-15 14:59N 40°45' W 074°01'0 0.0
2018-Feb-15 14:29N 40°45' W 074°01'0 0.0
2018-Feb-15 13:59N 40°45' W 074°01'0 0.0
2018-Feb-15 13:29N 40°45' W 074°01'0 0.0
2018-Feb-15 12:59N 40°45' W 074°01'0 0.0
2018-Feb-15 12:29N 40°45' W 074°01'0 0.0
2018-Feb-15 11:59N 40°45' W 074°01'0 0.0
2018-Feb-15 11:28N 40°45' W 074°01'0 0.0
2018-Feb-15 10:56N 40°45' W 074°01'0 0.0
2018-Feb-15 10:29N 40°45' W 074°01'0 0.0
2018-Feb-15 09:59N 40°45' W 074°01'0 0.0
2018-Feb-15 09:29N 40°45' W 074°01'0 0.0
2018-Feb-15 08:59N 40°45' W 074°01'0 0.0
2018-Feb-15 08:29N 40°45' W 074°01'0 0.0
2018-Feb-15 07:59N 40°45' W 074°01'0 0.0
2018-Feb-15 07:29N 40°45' W 074°01'0 0.0
2018-Feb-15 06:59N 40°45' W 074°01'0 0.0
2018-Feb-15 06:23N 40°45' W 074°01'0 0.0
2018-Feb-15 05:59N 40°45' W 074°01'0 0.0
2018-Feb-15 05:29N 40°45' W 074°01'0 0.0
2018-Feb-15 04:59N 40°45' W 074°01'0 0.0
2018-Feb-15 04:29N 40°45' W 074°01'0 0.0
2018-Feb-15 03:59N 40°45' W 074°01'0 0.0
2018-Feb-15 03:29N 40°45' W 074°01'0 0.0
2018-Feb-15 02:59N 40°45' W 074°01'0 0.0
2018-Feb-15 02:29N 40°45' W 074°01'0 0.0
2018-Feb-15 01:59N 40°45' W 074°01'0 0.0
2018-Feb-15 01:29N 40°45' W 074°01'0 0.0
2018-Feb-15 00:59N 40°45' W 074°01'0 0.0
2018-Feb-15 00:29N 40°45' W 074°01'0 0.0
2018-Feb-14 23:59N 40°45' W 074°01'0 0.0
2018-Feb-14 23:29N 40°45' W 074°01'0 0.0
2018-Feb-14 22:59N 40°45' W 074°01'0 0.0
2018-Feb-14 22:29N 40°45' W 074°01'0 0.0
2018-Feb-14 21:59N 40°45' W 074°01'0 0.0
2018-Feb-14 21:29N 40°45' W 074°01'0 0.0
2018-Feb-14 20:59N 40°45' W 074°01'0 0.0
2018-Feb-14 20:29N 40°45' W 074°01'0 0.0
2018-Feb-14 19:59N 40°45' W 074°01'0 0.0
2018-Feb-14 19:29N 40°45' W 074°01'1 2.0
2018-Feb-14 19:00N 40°44' W 074°01'3 5.2
2018-Feb-14 18:30N 40°41' W 074°02'2 3.9
2018-Feb-14 18:00N 40°43' W 074°02'2 3.3
2018-Feb-14 17:30N 40°45' W 074°01'0 0.0
2018-Feb-14 17:00N 40°45' W 074°01'0 0.0
2018-Feb-14 16:30N 40°45' W 074°01'0 0.0
2018-Feb-14 15:57N 40°45' W 074°01'0 0.0
2018-Feb-14 15:30N 40°45' W 074°01'0 0.0
2018-Feb-14 15:00N 40°45' W 074°01'0 0.0
2018-Feb-14 14:30N 40°45' W 074°01'0 0.0
2018-Feb-14 14:00N 40°45' W 074°01'0 0.0
2018-Feb-14 13:30N 40°45' W 074°01'0 0.0
2018-Feb-14 13:00N 40°45' W 074°01'0 0.0
2018-Feb-14 12:30N 40°45' W 074°01'0 0.0
2018-Feb-14 12:00N 40°45' W 074°01'0 0.0
2018-Feb-14 11:30N 40°45' W 074°01'0 0.0
2018-Feb-14 10:58N 40°45' W 074°01'0 0.0
2018-Feb-14 10:28N 40°45' W 074°01'0 0.0
2018-Feb-14 09:58N 40°45' W 074°01'0 0.0
2018-Feb-14 09:28N 40°45' W 074°01'0 0.0
2018-Feb-14 08:58N 40°45' W 074°01'0 0.0
2018-Feb-14 08:28N 40°45' W 074°01'0 0.0
2018-Feb-14 07:58N 40°45' W 074°01'0 0.0
2018-Feb-14 07:28N 40°45' W 074°01'0 0.0
2018-Feb-14 06:58N 40°45' W 074°01'0 0.0
2018-Feb-14 06:30N 40°45' W 074°01'0 0.0
2018-Feb-14 05:59N 40°45' W 074°01'0 0.0
2018-Feb-14 05:29N 40°45' W 074°01'0 0.0
2018-Feb-14 05:00N 40°45' W 074°01'0 0.0
2018-Feb-14 04:28N 40°45' W 074°01'0 0.0
2018-Feb-14 03:58N 40°45' W 074°01'0 0.0
2018-Feb-14 03:28N 40°45' W 074°01'0 0.0
2018-Feb-14 02:58N 40°45' W 074°01'0 0.0
2018-Feb-14 02:28N 40°45' W 074°01'0 0.0
2018-Feb-14 01:58N 40°45' W 074°01'0 0.0
2018-Feb-14 01:28N 40°45' W 074°01'0 0.0
2018-Feb-14 00:58N 40°45' W 074°01'0 0.0
2018-Feb-14 00:28N 40°45' W 074°01'0 0.0
2018-Feb-13 23:58N 40°45' W 074°01'0 0.0
2018-Feb-13 23:28N 40°45' W 074°01'0 0.0
2018-Feb-13 22:58N 40°45' W 074°01'1 1.1
2018-Feb-13 22:30N 40°45' W 074°01'3 5.7
2018-Feb-13 22:00N 40°48' W 073°59'2 4.7
2018-Feb-13 21:30N 40°50' W 073°58'1 1.8
2018-Feb-13 21:00N 40°49' W 073°58'4 7.1
2018-Feb-13 20:30N 40°46' W 074°00'1 2.6
2018-Feb-13 20:00N 40°45' W 074°01'0 0.0
2018-Feb-13 19:30N 40°45' W 074°01'0 0.0
2018-Feb-13 19:00N 40°45' W 074°01'0 0.0
2018-Feb-13 18:30N 40°45' W 074°01'0 0.0
2018-Feb-13 18:00N 40°45' W 074°01'0 0.0
2018-Feb-13 17:30N 40°45' W 074°01'0 0.0
2018-Feb-13 17:00N 40°45' W 074°01'0 0.0
2018-Feb-13 16:30N 40°45' W 074°01'0 0.0
2018-Feb-13 16:00N 40°45' W 074°01'0 0.0
2018-Feb-13 15:30N 40°45' W 074°01'0 0.0
2018-Feb-13 15:00N 40°45' W 074°01'0 0.0
2018-Feb-13 14:30N 40°45' W 074°01'0 0.0
2018-Feb-13 14:00N 40°45' W 074°01'0 0.0
2018-Feb-13 13:30N 40°45' W 074°01'0 0.0
2018-Feb-13 13:00N 40°45' W 074°01'0 0.0
2018-Feb-13 12:30N 40°45' W 074°01'0 0.0
2018-Feb-13 12:00N 40°45' W 074°01'0 0.0
2018-Feb-13 11:30N 40°45' W 074°01'0 0.0
2018-Feb-13 11:00N 40°45' W 074°01'0 0.0
2018-Feb-13 10:30N 40°45' W 074°01'0 0.0
2018-Feb-13 10:00N 40°45' W 074°01'0 0.0
2018-Feb-13 09:30N 40°45' W 074°01'0 0.0
2018-Feb-13 09:00N 40°45' W 074°01'0 0.0
2018-Feb-13 08:30N 40°45' W 074°01'0 0.0
2018-Feb-13 08:00N 40°45' W 074°01'0 0.0
2018-Feb-13 07:30N 40°45' W 074°01'0 0.0
2018-Feb-13 07:00N 40°45' W 074°01'0 0.0
2018-Feb-13 06:30N 40°45' W 074°01'0 0.0
2018-Feb-13 06:00N 40°45' W 074°01'0 0.0
2018-Feb-13 05:30N 40°45' W 074°01'0 0.0
2018-Feb-13 05:00N 40°45' W 074°01'0 0.0
2018-Feb-13 04:30N 40°45' W 074°01'0 0.0
2018-Feb-13 04:00N 40°45' W 074°01'0 0.0
2018-Feb-13 03:30N 40°45' W 074°01'0 0.0
2018-Feb-13 03:00N 40°45' W 074°01'0 0.0
2018-Feb-13 02:30N 40°45' W 074°01'0 0.0
2018-Feb-13 01:57N 40°45' W 074°01'0 0.0
2018-Feb-13 01:30N 40°45' W 074°01'0 0.0
2018-Feb-13 01:00N 40°45' W 074°01'0 0.0
2018-Feb-13 00:30N 40°45' W 074°01'0 0.0
2018-Feb-13 00:00N 40°45' W 074°01'0 0.0
2018-Feb-12 23:30N 40°45' W 074°01'0 0.1
2018-Feb-12 23:00N 40°45' W 074°01'3 5.4
2018-Feb-12 22:31N 40°42' W 074°02'3 4.9
2018-Feb-12 21:58N 40°45' W 074°01'1 2.7
2018-Feb-12 21:30N 40°46' W 074°00'510.3
2018-Feb-12 21:00N 40°51' W 073°57'1 2.6
2018-Feb-12 20:30N 40°49' W 073°58'4 7.1
2018-Feb-12 20:00N 40°46' W 074°00'2 2.7
2018-Feb-12 19:27N 40°45' W 074°01'0 0.0
2018-Feb-12 19:00N 40°45' W 074°01'0 0.0
2018-Feb-12 18:30N 40°45' W 074°01'0 0.0
2018-Feb-12 17:57N 40°45' W 074°01'0 0.0
2018-Feb-12 17:30N 40°45' W 074°01'0 0.0
2018-Feb-12 17:00N 40°45' W 074°01'0 0.0
2018-Feb-12 16:30N 40°45' W 074°01'0 0.0
2018-Feb-12 16:00N 40°45' W 074°01'0 0.0
2018-Feb-12 15:18N 40°45' W 074°01'0 0.0
2018-Feb-12 15:00N 40°45' W 074°01'0 0.0
2018-Feb-12 14:30N 40°45' W 074°01'0 0.0
2018-Feb-12 14:00N 40°45' W 074°01'0 0.0
2018-Feb-12 13:30N 40°45' W 074°01'0 0.0
2018-Feb-12 13:00N 40°45' W 074°01'0 0.0
2018-Feb-12 12:30N 40°45' W 074°01'0 0.0
2018-Feb-12 12:00N 40°45' W 074°01'0 0.0
2018-Feb-12 11:30N 40°45' W 074°01'0 0.0
2018-Feb-12 10:59N 40°45' W 074°01'0 0.0
2018-Feb-12 10:26N 40°45' W 074°01'0 0.0
2018-Feb-12 09:59N 40°45' W 074°01'0 0.0
2018-Feb-12 09:29N 40°45' W 074°01'0 0.2
2018-Feb-12 09:00N 40°45' W 074°01'0 0.2
2018-Feb-12 08:30N 40°45' W 074°01'0 0.0
2018-Feb-12 08:00N 40°45' W 074°01'0 0.0
2018-Feb-12 07:30N 40°45' W 074°01'0 0.0
2018-Feb-12 07:00N 40°45' W 074°01'0 0.0
2018-Feb-12 06:30N 40°45' W 074°01'0 0.0
2018-Feb-12 06:00N 40°45' W 074°01'0 0.0
2018-Feb-12 05:30N 40°45' W 074°01'0 0.0
2018-Feb-12 05:00N 40°45' W 074°01'0 0.0
2018-Feb-12 04:30N 40°45' W 074°01'0 0.0
2018-Feb-12 04:00N 40°45' W 074°01'0 0.0
2018-Feb-12 03:30N 40°45' W 074°01'0 0.0
2018-Feb-12 03:00N 40°45' W 074°01'0 0.0
2018-Feb-12 02:30N 40°45' W 074°01'0 0.0
2018-Feb-12 02:00N 40°45' W 074°01'0 0.0
2018-Feb-12 01:30N 40°45' W 074°01'0 0.0
2018-Feb-12 01:00N 40°45' W 074°01'1 1.1
2018-Feb-12 00:30N 40°44' W 074°01'1 1.1
2018-Feb-12 00:00N 40°45' W 074°01'0 0.0
2018-Feb-11 23:30N 40°45' W 074°01'0 0.0
2018-Feb-11 23:00N 40°45' W 074°01'0 0.0
2018-Feb-11 22:28N 40°45' W 074°01'0 0.0
2018-Feb-11 21:58N 40°45' W 074°01'0 0.0
2018-Feb-11 21:28N 40°45' W 074°01'0 0.0
2018-Feb-11 20:58N 40°45' W 074°01'0 0.0
2018-Feb-11 20:28N 40°45' W 074°01'0 0.0
2018-Feb-11 19:58N 40°45' W 074°01'0 0.0
2018-Feb-11 19:28N 40°45' W 074°01'0 0.0
2018-Feb-11 18:58N 40°45' W 074°01'0 0.0
2018-Feb-11 18:28N 40°45' W 074°01'0 0.0
2018-Feb-11 17:58N 40°45' W 074°01'0 0.0
2018-Feb-11 17:28N 40°45' W 074°01'0 0.0
2018-Feb-11 16:58N 40°45' W 074°01'0 0.0
2018-Feb-11 16:28N 40°45' W 074°01'0 0.0
2018-Feb-11 15:58N 40°45' W 074°01'0 0.0
2018-Feb-11 15:28N 40°45' W 074°01'0 0.0
2018-Feb-11 14:58N 40°45' W 074°01'0 0.0
2018-Feb-11 14:28N 40°45' W 074°01'0 0.0
2018-Feb-11 13:58N 40°45' W 074°01'0 0.0
2018-Feb-11 13:28N 40°45' W 074°01'0 0.0
2018-Feb-11 12:58N 40°45' W 074°01'0 0.0
2018-Feb-11 12:28N 40°45' W 074°01'0 0.0
2018-Feb-11 11:58N 40°45' W 074°01'0 0.0
2018-Feb-11 11:28N 40°45' W 074°01'  

Dump ship's entire track history